Ambierville, New York
Current Conditions -  °F | °C
As of 6:53 AM on Tuesday 21 Oct 2014 (Local Time) from KBGM Reporting Station
Overcast Overcast  
Wind Chill: 47°   Ceiling: 6500
Heat Index: 47°   Visibility: 10mi
Dew Point: 43°   Wind: 3mph
Humidity: 86%   Direction: 170°S
Pressure: 29.82"   Gusts: NA
Location:  42.5358°N, 75.3475°W
Report Text: KBGM 211053Z 17003KT 10SM SCT045 OVC065 08/06 A2982 RMK AO2 SLP103 T00830061
Loading
Personal Weather Stations






























Interactive Weather Map New forecast layout! Learn more

10-Day Weather Forecast

Advertisements
Track Severe Weather on mobile